Time;durP1;ratioP1;P1;durP2;ratioP2;P2;SDS_P1;SDS_P2;PMS_P1;PMS_P2;Temp;Humidity;BMP_temperature;BMP_pressure;BME280_temperature;BME280_humidity;BME280_pressure;Samples;Min_cycle;Max_cycle;Signal;HPM_P1;HPM_P2
2022/03/27 00:01:35;;;;;;;21.00;12.33;;;14.70;47.40;;;;;;5056540;28;20429;-76
2022/03/27 00:04:01;;;;;;;19.27;10.70;;;14.60;47.60;;;;;;5054317;28;20751;-75
2022/03/27 00:06:27;;;;;;;24.47;12.40;;;14.60;47.50;;;;;;5052997;28;20283;-75
2022/03/27 00:08:55;;;;;;;20.83;12.30;;;14.60;47.60;;;;;;5057470;28;20533;-75
2022/03/27 00:11:24;;;;;;;24.70;12.80;;;14.70;47.50;;;;;;5055296;28;20218;-75
2022/03/27 00:13:59;;;;;;;28.33;12.50;;;14.70;47.60;;;;;;5054533;28;20430;-74
2022/03/27 00:16:25;;;;;;;19.23;11.80;;;14.70;47.50;;;;;;5053270;28;20453;-75
2022/03/27 00:18:51;;;;;;;18.47;12.07;;;14.60;47.70;;;;;;5056669;28;20643;-75
2022/03/27 00:21:17;;;;;;;20.23;12.20;;;14.50;47.90;;;;;;5055643;28;20425;-75
2022/03/27 00:23:43;;;;;;;21.07;12.00;;;14.60;47.70;;;;;;5057710;28;20459;-75
2022/03/27 00:26:10;;;;;;;24.20;11.30;;;14.40;48.90;;;;;;5055769;28;20556;-74
2022/03/27 00:28:36;;;;;;;16.93;11.93;;;14.30;48.50;;;;;;5056698;28;20468;-74
2022/03/27 00:31:05;;;;;;;20.83;13.20;;;14.30;48.40;;;;;;5046876;28;21292;-74
2022/03/27 00:33:32;;;;;;;32.53;15.50;;;14.30;48.30;;;;;;5052353;28;20820;-74
2022/03/27 00:35:59;;;;;;;25.40;13.30;;;14.20;48.30;;;;;;5056463;28;20445;-74
2022/03/27 00:38:25;;;;;;;19.17;12.03;;;13.70;49.00;;;;;;5057046;28;20940;-74
2022/03/27 00:40:53;;;;;;;27.30;13.30;;;13.90;49.30;;;;;;5054753;28;20441;-76
2022/03/27 00:43:20;;;;;;;17.90;12.57;;;13.90;49.30;;;;;;5057572;28;20793;-75
2022/03/27 00:45:47;;;;;;;22.07;13.93;;;13.80;49.30;;;;;;5055410;28;20958;-77
2022/03/27 00:48:18;;;;;;;24.03;13.60;;;13.80;49.60;;;;;;5053709;28;20872;-77
2022/03/27 00:50:44;;;;;;;20.90;14.50;;;13.70;49.70;;;;;;5057396;28;21025;-76
2022/03/27 00:53:10;;;;;;;24.17;13.20;;;13.70;49.60;;;;;;5055435;28;20556;-76
2022/03/27 00:55:36;;;;;;;21.10;13.63;;;13.50;50.00;;;;;;5037132;28;20533;-76
2022/03/27 00:58:02;;;;;;;17.50;12.50;;;13.60;50.00;;;;;;5056715;28;20194;-75
2022/03/27 01:00:45;;;;;;;22.90;13.00;;;13.60;49.90;;;;;;5053973;28;20452;-74
2022/03/27 01:03:14;;;;;;;22.40;12.30;;;13.50;49.70;;;;;;5041316;28;20435;-75
2022/03/27 01:05:41;;;;;;;19.97;12.83;;;13.50;49.90;;;;;;5039377;28;20457;-74
2022/03/27 01:08:09;;;;;;;21.67;13.77;;;13.40;49.90;;;;;;5051239;28;20490;-74
2022/03/27 01:10:35;;;;;;;25.20;12.53;;;13.50;50.00;;;;;;5056750;28;20425;-73
2022/03/27 01:13:12;;;;;;;20.10;12.47;;;13.40;49.90;;;;;;5051650;28;20429;-74
2022/03/27 01:15:45;;;;;;;20.87;12.90;;;13.30;50.10;;;;;;5049750;28;20525;-73
2022/03/27 01:18:12;;;;;;;21.07;11.80;;;13.30;50.30;;;;;;5055249;28;20452;-73
2022/03/27 01:20:40;;;;;;;21.37;12.50;;;13.30;50.30;;;;;;5051942;28;20444;-73
2022/03/27 01:23:13;;;;;;;26.50;16.10;;;13.30;50.40;;;;;;5054819;28;20445;-73
2022/03/27 01:25:42;;;;;;;22.90;13.30;;;13.20;50.40;;;;;;5056143;28;20434;-73
2022/03/27 01:28:10;;;;;;;22.80;12.27;;;13.00;50.70;;;;;;5056333;28;20453;-74
2022/03/27 01:30:37;;;;;;;27.27;14.20;;;13.10;50.90;;;;;;5055246;28;20426;-74
2022/03/27 01:33:05;;;;;;;22.97;12.73;;;13.00;51.20;;;;;;5053955;28;20485;-74
2022/03/27 01:35:31;;;;;;;21.23;12.77;;;13.10;51.00;;;;;;5052796;28;21002;-73
2022/03/27 01:37:56;;;;;;;23.70;14.43;;;13.10;51.60;;;;;;5052116;28;20433;-75
2022/03/27 01:40:22;;;;;;;28.03;13.93;;;13.10;51.10;;;;;;5052804;28;20187;-74
2022/03/27 01:42:49;;;;;;;19.60;13.20;;;13.00;51.10;;;;;;5054237;28;20610;-74
2022/03/27 01:45:15;;;;;;;22.20;12.73;;;13.00;51.20;;;;;;5054955;28;20211;-75
2022/03/27 01:47:41;;;;;;;26.00;13.43;;;13.00;51.10;;;;;;5057117;28;20509;-76
2022/03/27 01:50:08;;;;;;;23.10;14.30;;;12.90;51.30;;;;;;5058747;28;20413;-76
2022/03/27 01:52:34;;;;;;;23.20;14.20;;;12.70;51.40;;;;;;5058853;28;20775;-75
2022/03/27 01:55:05;;;;;;;24.63;13.40;;;12.60;52.10;;;;;;5058907;28;20421;-76
2022/03/27 01:57:31;;;;;;;18.90;13.10;;;12.60;52.50;;;;;;5055851;28;20982;-76
2022/03/27 01:59:56;;;;;;;22.13;13.67;;;12.60;52.20;;;;;;5057282;28;20430;-76
2022/03/27 02:02:25;;;;;;;19.40;12.40;;;12.70;52.30;;;;;;5058206;28;20178;-75
2022/03/27 02:04:52;;;;;;;22.10;14.30;;;12.70;52.30;;;;;;5037425;28;20245;-74
2022/03/27 02:07:19;;;;;;;22.03;13.03;;;12.80;52.20;;;;;;5057270;28;20457;-76
2022/03/27 02:09:45;;;;;;;24.83;11.80;;;12.70;52.20;;;;;;5060590;28;20464;-76
2022/03/27 02:12:11;;;;;;;19.97;13.60;;;12.60;52.40;;;;;;5057558;28;20422;-74
2022/03/27 02:14:37;;;;;;;22.50;12.83;;;12.50;52.60;;;;;;5057903;28;20426;-74
2022/03/27 02:17:03;;;;;;;23.93;14.40;;;12.50;52.60;;;;;;5056676;28;20520;-74
2022/03/27 02:19:28;;;;;;;26.97;13.80;;;12.50;52.70;;;;;;5060978;28;20267;-75
2022/03/27 02:21:54;;;;;;;20.07;13.40;;;12.50;52.90;;;;;;5059788;28;20188;-73
2022/03/27 02:24:20;;;;;;;23.13;14.07;;;12.30;53.00;;;;;;5061771;28;20202;-73
2022/03/27 02:26:47;;;;;;;19.03;13.20;;;12.30;53.30;;;;;;5054853;28;21098;-75
2022/03/27 02:29:17;;;;;;;24.67;12.50;;;12.00;53.50;;;;;;5057552;28;20199;-74
2022/03/27 02:31:44;;;;;;;19.63;13.13;;;12.10;53.70;;;;;;5056115;28;20472;-73
2022/03/27 02:34:10;;;;;;;21.70;13.37;;;12.30;53.40;;;;;;5042375;28;20417;-75
2022/03/27 02:36:36;;;;;;;28.33;14.33;;;12.30;53.50;;;;;;5060474;28;20448;-75
2022/03/27 02:39:03;;;;;;;26.87;12.03;;;12.30;53.50;;;;;;5058114;28;20926;-75
2022/03/27 02:41:29;;;;;;;26.03;13.67;;;12.20;53.70;;;;;;5057591;28;20184;-75
2022/03/27 02:43:54;;;;;;;25.40;13.13;;;12.10;53.80;;;;;;5062008;28;20459;-75
2022/03/27 02:46:20;;;;;;;21.40;12.97;;;12.10;53.80;;;;;;5054804;28;20278;-75
2022/03/27 02:48:46;;;;;;;20.23;12.30;;;12.10;54.00;;;;;;5058130;28;20219;-73
2022/03/27 02:51:12;;;;;;;20.43;13.33;;;12.00;54.20;;;;;;5058545;28;20436;-73
2022/03/27 02:53:37;;;;;;;21.53;12.73;;;11.90;54.20;;;;;;5058434;28;20172;-73
2022/03/27 02:56:04;;;;;;;23.13;13.00;;;11.80;54.40;;;;;;5057965;28;20207;-73
2022/03/27 02:58:30;;;;;;;26.23;13.67;;;11.80;54.50;;;;;;5054758;28;20186;-76
2022/03/27 03:00:56;;;;;;;23.60;12.93;;;11.90;54.30;;;;;;5055752;28;20430;-76
2022/03/27 03:03:22;;;;;;;22.90;13.30;;;11.80;54.50;;;;;;5056283;28;20437;-76
2022/03/27 03:05:49;;;;;;;23.80;13.20;;;11.80;54.50;;;;;;5056280;28;20211;-77
2022/03/27 03:08:18;;;;;;;20.50;12.33;;;11.80;54.50;;;;;;5056314;28;20460;-77
2022/03/27 03:10:44;;;;;;;24.47;14.37;;;11.70;54.70;;;;;;5060188;28;20445;-74
2022/03/27 03:13:11;;;;;;;18.37;12.50;;;11.80;54.70;;;;;;5055805;28;20430;-74
2022/03/27 03:15:37;;;;;;;19.27;12.83;;;11.60;55.00;;;;;;5055488;28;20453;-76
2022/03/27 03:18:08;;;;;;;24.47;13.87;;;11.70;54.90;;;;;;5041699;28;20482;-76
2022/03/27 03:20:36;;;;;;;21.70;13.13;;;11.60;54.80;;;;;;5059957;28;20525;-76
2022/03/27 03:23:01;;;;;;;21.57;13.00;;;11.60;54.80;;;;;;5056584;28;20437;-76
2022/03/27 03:25:27;;;;;;;24.73;12.93;;;11.70;54.80;;;;;;5058199;28;20479;-76
2022/03/27 03:27:53;;;;;;;24.83;13.33;;;11.70;55.00;;;;;;5056277;28;20549;-76
2022/03/27 03:30:19;;;;;;;20.40;13.47;;;11.60;54.90;;;;;;5056940;28;20264;-74
2022/03/27 03:32:44;;;;;;;21.17;13.23;;;11.50;55.20;;;;;;5055040;28;20622;-73
2022/03/27 03:35:10;;;;;;;25.83;12.53;;;11.50;55.50;;;;;;5054917;28;20241;-74
2022/03/27 03:37:36;;;;;;;23.03;13.93;;;11.40;55.40;;;;;;5054736;28;20179;-74
2022/03/27 03:40:06;;;;;;;23.00;12.03;;;11.30;55.50;;;;;;5058595;28;20962;-74
2022/03/27 03:42:33;;;;;;;22.03;13.07;;;11.40;55.70;;;;;;5052945;28;20206;-74
2022/03/27 03:44:59;;;;;;;28.90;14.93;;;11.50;55.60;;;;;;5058312;28;20429;-75
2022/03/27 03:47:24;;;;;;;22.90;12.33;;;11.40;55.70;;;;;;5056293;28;21107;-74
2022/03/27 03:49:50;;;;;;;21.03;13.37;;;11.40;55.70;;;;;;5033931;28;20476;-74
2022/03/27 03:52:16;;;;;;;21.73;12.60;;;11.40;55.80;;;;;;5053427;28;20233;-74
2022/03/27 03:54:41;;;;;;;22.70;12.23;;;11.30;55.70;;;;;;5054991;28;20183;-74
2022/03/27 03:57:07;;;;;;;21.30;13.30;;;11.40;55.90;;;;;;5053145;28;20202;-74
2022/03/27 03:59:33;;;;;;;24.33;13.10;;;11.30;55.80;;;;;;5054490;28;20199;-74
2022/03/27 04:02:00;;;;;;;27.03;13.37;;;11.20;55.90;;;;;;5052300;28;20896;-73
2022/03/27 04:04:27;;;;;;;21.17;12.77;;;11.20;56.10;;;;;;5058698;28;20433;-73
2022/03/27 04:06:52;;;;;;;22.47;11.00;;;11.10;56.40;;;;;;5052926;28;20472;-72
2022/03/27 04:09:20;;;;;;;22.40;13.10;;;11.20;56.30;;;;;;5054383;28;20457;-73
2022/03/27 04:11:47;;;;;;;24.67;13.00;;;11.10;56.30;;;;;;5053754;28;20179;-73
2022/03/27 04:14:13;;;;;;;21.93;12.90;;;11.10;56.20;;;;;;5055772;28;20944;-74
2022/03/27 04:16:41;;;;;;;23.60;13.13;;;11.00;56.10;;;;;;5058521;28;20453;-76
2022/03/27 04:19:07;;;;;;;24.37;12.90;;;11.00;56.40;;;;;;5053495;28;20260;-73
2022/03/27 04:21:32;;;;;;;22.67;13.33;;;10.90;56.80;;;;;;5054779;28;21322;-73
2022/03/27 04:23:58;;;;;;;25.00;12.33;;;10.90;56.70;;;;;;5053676;28;20191;-73
2022/03/27 04:26:23;;;;;;;30.73;13.00;;;11.00;56.70;;;;;;5053129;28;20740;-74
2022/03/27 04:28:49;;;;;;;21.73;12.90;;;10.90;56.80;;;;;;5052096;28;20239;-73
2022/03/27 04:31:15;;;;;;;26.57;14.27;;;11.00;56.90;;;;;;5051733;28;20188;-73
2022/03/27 04:41:36;;;;;;;25.90;12.33;;;10.80;57.70;;;;;;6009421;22;20394;-69
2022/03/27 04:44:03;;;;;;;23.53;13.30;;;10.70;57.40;;;;;;4989101;28;20989;-69
2022/03/27 04:46:29;;;;;;;22.10;13.77;;;10.80;57.60;;;;;;4996102;28;20591;-70
2022/03/27 04:48:55;;;;;;;18.77;11.83;;;10.80;57.70;;;;;;5002172;28;20980;-69
2022/03/27 04:51:21;;;;;;;23.07;12.37;;;11.00;57.30;;;;;;4983774;28;20428;-68
2022/03/27 04:53:47;;;;;;;24.07;13.20;;;10.90;57.30;;;;;;4998175;28;20436;-69
2022/03/27 04:56:13;;;;;;;22.87;12.00;;;10.70;57.40;;;;;;4995685;28;20549;-68
2022/03/27 04:58:38;;;;;;;30.30;12.80;;;10.90;57.50;;;;;;5000912;28;20444;-67
2022/03/27 05:01:04;;;;;;;19.50;11.67;;;11.00;57.40;;;;;;5000913;28;20646;-70
2022/03/27 05:03:30;;;;;;;22.00;12.50;;;11.10;57.30;;;;;;5002314;28;20590;-69
2022/03/27 05:05:55;;;;;;;19.87;12.17;;;11.10;57.10;;;;;;5001284;28;20197;-70
2022/03/27 05:08:21;;;;;;;24.30;15.70;;;11.10;57.40;;;;;;5000967;28;20309;-70
2022/03/27 05:10:47;;;;;;;23.53;13.60;;;11.20;57.20;;;;;;5001837;28;20181;-69
2022/03/27 05:13:14;;;;;;;26.40;13.40;;;11.10;57.30;;;;;;5001938;28;20453;-70
2022/03/27 05:15:40;;;;;;;21.57;11.67;;;11.00;57.40;;;;;;4997635;28;20658;-68
2022/03/27 05:18:06;;;;;;;21.83;12.03;;;11.00;57.50;;;;;;5001588;28;20436;-68
2022/03/27 05:20:32;;;;;;;27.40;14.37;;;11.10;57.40;;;;;;5009068;28;21016;-69
2022/03/27 05:23:01;;;;;;;25.67;14.23;;;11.20;57.20;;;;;;5002178;28;20205;-68
2022/03/27 05:25:27;;;;;;;30.93;13.03;;;11.10;57.40;;;;;;5006344;28;20259;-69
2022/03/27 05:27:55;;;;;;;20.83;11.83;;;11.00;57.40;;;;;;5007391;28;20609;-69
2022/03/27 05:30:25;;;;;;;21.77;13.43;;;11.00;57.60;;;;;;5007660;28;20287;-69
2022/03/27 05:32:56;;;;;;;20.67;12.50;;;11.10;57.60;;;;;;5005298;28;20469;-68
2022/03/27 05:35:23;;;;;;;29.27;12.03;;;11.10;57.30;;;;;;5008048;28;20436;-70
2022/03/27 05:37:49;;;;;;;21.60;13.20;;;11.20;57.50;;;;;;5003156;28;20470;-70
2022/03/27 05:40:18;;;;;;;23.53;13.47;;;11.20;57.50;;;;;;4986570;28;20432;-69
2022/03/27 05:42:44;;;;;;;22.10;12.47;;;11.10;57.50;;;;;;5005726;28;20463;-70
2022/03/27 05:45:10;;;;;;;20.80;12.63;;;11.10;57.60;;;;;;5001957;28;20436;-69
2022/03/27 05:47:41;;;;;;;25.77;13.30;;;11.20;57.70;;;;;;5005906;28;20872;-69
2022/03/27 05:50:08;;;;;;;18.20;11.80;;;11.00;58.10;;;;;;5002215;28;20428;-69
2022/03/27 05:52:34;;;;;;;24.70;13.60;;;10.80;58.40;;;;;;4999115;28;20464;-69
2022/03/27 05:54:59;;;;;;;18.50;12.70;;;10.90;58.80;;;;;;5000600;28;20432;-68
2022/03/27 05:57:25;;;;;;;22.17;12.70;;;10.80;58.80;;;;;;4984220;28;20244;-69
2022/03/27 05:59:51;;;;;;;19.23;12.60;;;10.90;58.80;;;;;;4980054;28;20649;-69
2022/03/27 06:02:17;;;;;;;20.90;13.83;;;10.80;58.80;;;;;;5002431;28;20491;-69
2022/03/27 06:04:43;;;;;;;25.50;14.50;;;10.70;59.20;;;;;;5000644;28;20601;-68
2022/03/27 06:07:09;;;;;;;21.60;13.47;;;10.60;59.40;;;;;;5002546;28;20208;-69
2022/03/27 06:09:35;;;;;;;23.93;12.97;;;10.60;59.60;;;;;;5001276;28;20519;-68
2022/03/27 06:12:03;;;;;;;21.83;13.00;;;10.80;59.60;;;;;;5000334;28;20451;-67
2022/03/27 06:14:29;;;;;;;23.40;13.37;;;10.80;59.40;;;;;;4971575;28;20967;-68
2022/03/27 06:16:54;;;;;;;23.73;13.80;;;10.70;59.50;;;;;;4979656;28;20439;-70
2022/03/27 06:19:20;;;;;;;21.30;12.83;;;10.80;59.70;;;;;;5000579;28;20446;-69
2022/03/27 06:21:46;;;;;;;21.00;13.13;;;10.70;59.70;;;;;;4980266;28;20237;-70
2022/03/27 06:24:13;;;;;;;21.80;13.60;;;10.80;59.60;;;;;;5003701;28;20185;-69
2022/03/27 06:26:39;;;;;;;20.83;13.90;;;10.90;59.60;;;;;;5000738;28;20431;-70
2022/03/27 06:29:05;;;;;;;24.40;13.03;;;10.80;59.70;;;;;;4999315;28;20537;-69
2022/03/27 06:31:31;;;;;;;20.50;13.40;;;10.80;60.00;;;;;;5002936;28;20482;-69
2022/03/27 06:33:57;;;;;;;25.90;15.43;;;10.80;60.10;;;;;;5003588;28;20957;-69
2022/03/27 06:36:23;;;;;;;25.07;14.43;;;10.90;59.90;;;;;;5004378;28;20177;-69
2022/03/27 06:38:48;;;;;;;28.77;13.80;;;11.00;59.90;;;;;;4986988;28;20435;-69
2022/03/27 06:41:14;;;;;;;25.27;14.93;;;11.00;59.90;;;;;;5004139;28;20872;-69
2022/03/27 06:43:40;;;;;;;19.63;12.90;;;11.10;59.90;;;;;;5004690;28;20213;-69
2022/03/27 06:46:06;;;;;;;24.43;13.30;;;11.10;60.00;;;;;;5000819;28;20204;-69
2022/03/27 06:48:32;;;;;;;25.27;14.00;;;11.20;59.80;;;;;;4982102;28;20472;-69
2022/03/27 06:50:58;;;;;;;27.07;14.40;;;11.20;59.90;;;;;;5001433;28;20448;-68
2022/03/27 06:53:24;;;;;;;20.80;12.87;;;11.30;59.90;;;;;;5004867;28;20458;-68
2022/03/27 06:55:51;;;;;;;27.00;13.83;;;11.40;59.90;;;;;;5003354;28;20768;-68
2022/03/27 06:58:17;;;;;;;20.10;12.83;;;11.30;60.00;;;;;;5000288;28;20722;-68
2022/03/27 07:03:27;;;;;;;20.83;13.73;;;11.40;59.80;;;;;;5002829;28;20464;-68
2022/03/27 07:05:53;;;;;;;22.60;13.97;;;11.50;59.70;;;;;;4982263;28;20941;-69
2022/03/27 07:08:20;;;;;;;24.03;14.70;;;11.50;59.50;;;;;;4997531;28;20237;-68
2022/03/27 07:10:47;;;;;;;22.17;13.80;;;11.60;59.40;;;;;;5001520;28;21023;-68
2022/03/27 07:13:15;;;;;;;25.93;13.33;;;11.60;59.40;;;;;;5000149;28;20445;-68
2022/03/27 07:15:46;;;;;;;26.57;14.60;;;11.60;59.40;;;;;;4999722;28;21002;-68
2022/03/27 07:18:13;;;;;;;22.60;14.83;;;11.70;59.50;;;;;;4986603;28;20472;-68
2022/03/27 07:20:41;;;;;;;20.07;14.23;;;11.60;59.60;;;;;;5004455;28;20547;-69
2022/03/27 07:23:11;;;;;;;22.47;14.37;;;11.60;59.70;;;;;;5000385;28;20440;-68
2022/03/27 07:25:39;;;;;;;25.10;14.27;;;11.60;59.80;;;;;;4998835;28;20491;-68
2022/03/27 07:28:06;;;;;;;29.70;14.90;;;11.70;60.00;;;;;;4998726;28;20472;-68
2022/03/27 07:30:32;;;;;;;23.83;13.20;;;11.70;59.90;;;;;;5000037;28;20444;-69
2022/03/27 07:32:58;;;;;;;23.40;14.20;;;11.80;60.00;;;;;;4997869;28;20451;-69
2022/03/27 07:35:26;;;;;;;22.93;13.00;;;11.90;59.80;;;;;;4999111;28;20429;-68
2022/03/27 07:37:53;;;;;;;21.73;14.70;;;12.00;59.80;;;;;;4985263;28;20436;-68
2022/03/27 07:40:20;;;;;;;26.77;13.70;;;12.00;59.70;;;;;;4983016;28;20498;-68
2022/03/27 07:42:49;;;;;;;23.17;14.23;;;12.10;59.70;;;;;;5000586;28;20552;-68
2022/03/27 07:45:18;;;;;;;21.80;13.97;;;12.20;59.70;;;;;;4997193;28;20552;-69
2022/03/27 07:47:44;;;;;;;26.40;13.83;;;12.30;59.50;;;;;;4998363;28;20439;-68
2022/03/27 07:50:11;;;;;;;22.83;12.80;;;12.30;59.30;;;;;;4997701;28;20530;-70
2022/03/27 07:52:37;;;;;;;20.80;14.40;;;12.40;59.20;;;;;;4998994;28;20457;-69
2022/03/27 07:55:05;;;;;;;22.53;13.77;;;12.40;59.30;;;;;;5000446;28;20447;-69
2022/03/27 07:57:30;;;;;;;21.70;14.70;;;12.30;59.40;;;;;;5002576;28;20433;-69
2022/03/27 07:59:56;;;;;;;23.30;14.73;;;12.40;59.50;;;;;;5000399;28;20433;-70
2022/03/27 08:02:29;;;;;;;20.07;12.73;;;12.50;59.60;;;;;;5028938;28;20573;-69
2022/03/27 08:04:54;;;;;;;21.40;13.50;;;12.60;59.40;;;;;;5009270;28;21048;-67
2022/03/27 08:07:20;;;;;;;22.30;13.00;;;12.70;59.50;;;;;;5008566;28;20208;-67
2022/03/27 08:09:45;;;;;;;21.60;12.60;;;12.80;59.50;;;;;;5009234;28;20650;-69
2022/03/27 08:12:11;;;;;;;28.17;14.67;;;12.90;59.40;;;;;;5010236;28;20275;-67
2022/03/27 08:14:38;;;;;;;24.47;13.47;;;12.90;59.30;;;;;;5011715;28;20646;-68
2022/03/27 08:17:04;;;;;;;22.17;13.90;;;12.90;59.50;;;;;;5010324;28;20189;-69
2022/03/27 08:19:30;;;;;;;18.27;13.17;;;13.00;59.60;;;;;;5008099;28;20590;-69
2022/03/27 08:21:56;;;;;;;18.63;12.50;;;13.10;59.70;;;;;;5010428;28;21036;-69
2022/03/27 08:24:22;;;;;;;21.60;14.13;;;13.10;59.80;;;;;;5010987;28;20181;-69
2022/03/27 08:27:00;;;;;;;22.50;12.90;;;13.10;59.80;;;;;;5007957;28;20464;-68
2022/03/27 08:29:46;;;;;;;18.70;13.00;;;13.10;59.80;;;;;;5012320;28;20481;-69
2022/03/27 08:32:13;;;;;;;27.23;13.70;;;13.20;59.70;;;;;;5013112;28;20529;-69
2022/03/27 08:34:41;;;;;;;26.37;14.23;;;13.30;59.40;;;;;;5011421;28;20440;-68
2022/03/27 08:37:10;;;;;;;20.70;13.17;;;13.40;59.20;;;;;;5017601;28;20865;-68
2022/03/27 08:39:36;;;;;;;18.83;12.57;;;13.40;59.40;;;;;;5018907;28;20430;-68
2022/03/27 08:42:03;;;;;;;25.40;13.70;;;13.50;59.30;;;;;;5010706;28;20605;-68
2022/03/27 08:44:30;;;;;;;20.83;14.67;;;13.60;59.10;;;;;;5009451;28;20432;-69
2022/03/27 08:46:57;;;;;;;23.27;13.40;;;13.60;58.90;;;;;;5011490;28;20421;-68
2022/03/27 08:49:26;;;;;;;23.90;12.20;;;13.70;58.90;;;;;;5009842;28;20432;-69
2022/03/27 08:52:01;;;;;;;24.23;12.93;;;13.80;58.80;;;;;;5010318;28;20460;-68
2022/03/27 08:54:34;;;;;;;27.43;17.00;;;13.90;58.70;;;;;;5010325;28;20427;-68
2022/03/27 08:57:22;;;;;;;33.97;23.67;;;14.00;58.40;;;;;;5011941;28;21181;-69
2022/03/27 08:59:52;;;;;;;22.03;14.80;;;14.10;58.40;;;;;;5011789;28;20436;-69
2022/03/27 09:02:19;;;;;;;22.07;13.23;;;14.20;58.20;;;;;;5010482;28;20464;-69
2022/03/27 09:04:45;;;;;;;19.03;13.40;;;14.30;58.00;;;;;;5010702;28;20434;-69
2022/03/27 09:07:11;;;;;;;20.13;12.10;;;14.30;57.80;;;;;;5014109;28;20951;-70
2022/03/27 09:09:36;;;;;;;18.10;12.77;;;14.40;57.60;;;;;;5009467;28;20666;-70
2022/03/27 09:12:04;;;;;;;22.07;13.53;;;14.50;57.80;;;;;;5007054;28;20201;-70
2022/03/27 09:14:32;;;;;;;27.07;14.27;;;14.60;57.90;;;;;;4998390;28;20182;-70
2022/03/27 09:17:02;;;;;;;17.73;11.80;;;14.70;57.50;;;;;;4996387;28;20433;-70
2022/03/27 09:19:43;;;;;;;19.23;11.43;;;14.70;57.40;;;;;;4996722;28;20437;-69
2022/03/27 09:22:16;;;;;;;20.43;12.30;;;14.80;57.30;;;;;;4998064;28;20505;-70
2022/03/27 09:24:46;;;;;;;21.53;13.20;;;14.90;57.60;;;;;;4994579;28;20433;-70
2022/03/27 09:27:12;;;;;;;19.60;12.93;;;15.10;57.10;;;;;;4996362;28;20539;-68
2022/03/27 09:29:59;;;;;;;21.97;14.23;;;15.20;56.90;;;;;;4995284;28;20433;-67
2022/03/27 09:32:27;;;;;;;20.77;13.07;;;15.30;56.70;;;;;;4994349;28;20453;-68
2022/03/27 09:35:06;;;;;;;23.93;12.43;;;15.40;57.00;;;;;;4994590;28;20437;-69
2022/03/27 09:37:37;;;;;;;24.00;13.40;;;15.50;57.00;;;;;;4994787;28;20428;-69
2022/03/27 09:40:05;;;;;;;22.37;13.03;;;15.50;56.90;;;;;;4995083;28;20846;-69
2022/03/27 09:42:31;;;;;;;21.03;12.57;;;15.60;56.80;;;;;;4992384;28;20515;-69
2022/03/27 09:45:35;;;;;;;16.50;12.00;;;15.70;57.00;;;;;;4995110;28;20417;-69
2022/03/27 09:48:08;;;;;;;19.80;12.97;;;15.80;57.20;;;;;;4986793;28;20530;-69
2022/03/27 09:50:39;;;;;;;17.20;12.20;;;15.90;56.40;;;;;;4987910;28;20457;-69
2022/03/27 09:53:35;;;;;;;24.23;12.40;;;16.00;56.20;;;;;;4993598;28;20449;-69
2022/03/27 09:56:01;;;;;;;18.90;12.97;;;16.10;56.10;;;;;;4992886;28;20452;-69
2022/03/27 09:58:46;;;;;;;20.60;12.60;;;16.20;56.30;;;;;;4994784;28;20428;-69
2022/03/27 10:01:20;;;;;;;22.97;12.60;;;16.20;55.90;;;;;;4998586;28;20568;-69
2022/03/27 10:04:02;;;;;;;21.07;14.20;;;16.30;55.80;;;;;;4999732;28;20429;-69
2022/03/27 10:06:34;;;;;;;25.00;12.60;;;16.40;56.10;;;;;;4992758;28;21123;-69
2022/03/27 10:09:02;;;;;;;20.57;12.20;;;16.40;56.20;;;;;;4995918;28;20447;-69
2022/03/27 10:11:31;;;;;;;25.10;15.03;;;16.50;55.50;;;;;;5012390;28;20884;-69
2022/03/27 10:13:57;;;;;;;21.63;13.13;;;16.60;55.20;;;;;;4998705;28;20465;-69
2022/03/27 10:16:47;;;;;;;19.43;11.03;;;16.70;55.00;;;;;;4998657;28;20543;-69
2022/03/27 10:19:29;;;;;;;22.30;12.00;;;16.70;55.20;;;;;;4994815;28;20472;-70
2022/03/27 10:21:55;;;;;;;20.87;13.20;;;16.80;55.50;;;;;;4996849;28;20480;-69
2022/03/27 10:24:25;;;;;;;22.80;12.10;;;16.90;55.40;;;;;;4996935;28;20440;-70
2022/03/27 10:26:55;;;;;;;21.20;12.93;;;17.00;55.30;;;;;;4993192;28;20188;-69
2022/03/27 10:29:23;;;;;;;24.00;15.83;;;17.10;55.30;;;;;;4996074;28;20428;-69
2022/03/27 10:31:49;;;;;;;24.77;12.53;;;17.20;55.00;;;;;;4999297;28;21054;-69
2022/03/27 10:34:15;;;;;;;26.50;13.60;;;17.30;54.70;;;;;;4996179;28;20424;-70
2022/03/27 10:37:05;;;;;;;17.50;12.77;;;17.30;54.10;;;;;;4997696;28;21056;-69
2022/03/27 10:39:44;;;;;;;19.43;13.60;;;17.40;54.20;;;;;;4994965;28;20935;-69
2022/03/27 10:42:43;;;;;;;19.83;13.30;;;17.50;54.40;;;;;;4995273;28;21014;-69
2022/03/27 10:45:16;;;;;;;19.37;12.30;;;17.50;54.40;;;;;;4997580;28;20941;-70
2022/03/27 10:47:42;;;;;;;17.87;13.20;;;17.60;54.50;;;;;;4992223;28;20536;-69
2022/03/27 10:50:21;;;;;;;16.43;11.27;;;17.60;54.40;;;;;;4997904;28;20543;-67
2022/03/27 10:52:53;;;;;;;17.93;12.13;;;17.70;54.50;;;;;;4996564;28;20920;-69
2022/03/27 10:55:19;;;;;;;21.30;12.80;;;17.80;54.40;;;;;;4997840;28;20429;-70
2022/03/27 10:57:48;;;;;;;21.03;12.33;;;17.90;54.10;;;;;;4992127;28;20436;-69
2022/03/27 11:00:15;;;;;;;19.40;13.10;;;17.90;53.50;;;;;;4995320;28;20523;-69
2022/03/27 11:02:49;;;;;;;19.23;10.90;;;18.00;53.60;;;;;;4991061;28;20440;-69
2022/03/27 11:05:35;;;;;;;21.60;12.20;;;18.10;53.30;;;;;;4993461;28;20442;-69
2022/03/27 11:08:18;;;;;;;16.83;12.10;;;18.20;53.10;;;;;;4991728;28;20933;-69
2022/03/27 11:10:51;;;;;;;17.53;12.13;;;18.20;52.90;;;;;;4996961;28;20430;-69
2022/03/27 11:13:29;;;;;;;19.20;12.50;;;18.30;52.60;;;;;;4996372;28;21265;-69
2022/03/27 11:16:15;;;;;;;22.27;13.67;;;18.30;52.40;;;;;;5000488;28;21039;-69
2022/03/27 11:18:47;;;;;;;35.40;21.17;;;18.40;52.30;;;;;;4997424;28;20458;-69
2022/03/27 11:21:27;;;;;;;27.33;16.13;;;18.50;52.60;;;;;;4992610;28;20457;-69
2022/03/27 11:24:03;;;;;;;23.47;12.03;;;18.50;52.80;;;;;;4993393;28;20432;-68
2022/03/27 11:26:31;;;;;;;19.90;12.87;;;18.70;52.40;;;;;;4998234;28;20420;-68
2022/03/27 11:29:04;;;;;;;18.97;12.93;;;18.70;52.50;;;;;;4996996;28;20432;-68
2022/03/27 11:31:33;;;;;;;17.97;12.10;;;18.80;52.70;;;;;;4995806;28;20865;-68
2022/03/27 11:34:04;;;;;;;21.90;12.97;;;18.80;52.00;;;;;;4993579;28;20437;-68
2022/03/27 11:36:31;;;;;;;18.27;12.67;;;18.90;51.50;;;;;;4996808;28;20432;-68
2022/03/27 11:39:28;;;;;;;22.23;12.43;;;19.00;51.20;;;;;;4996681;28;20441;-70
2022/03/27 11:41:54;;;;;;;18.53;12.00;;;19.00;51.10;;;;;;4992939;28;20482;-68
2022/03/27 11:47:20;;;;;;;22.37;11.80;;;19.30;51.70;;;;;;4997194;28;20196;-68
2022/03/27 11:49:48;;;;;;;17.97;11.93;;;19.40;50.60;;;;;;4993782;28;20455;-67
2022/03/27 11:52:18;;;;;;;18.17;11.03;;;19.60;50.70;;;;;;4995480;28;20829;-68
2022/03/27 11:54:47;;;;;;;20.07;11.47;;;19.70;49.10;;;;;;4998964;28;20436;-68
2022/03/27 11:57:14;;;;;;;16.43;11.53;;;19.80;50.00;;;;;;4994196;28;20440;-68
2022/03/27 11:59:46;;;;;;;22.53;10.97;;;20.00;49.90;;;;;;4998233;28;20435;-68
2022/03/27 12:02:12;;;;;;;15.60;11.37;;;20.20;49.40;;;;;;5001667;28;21042;-68
2022/03/27 12:04:56;;;;;;;19.87;11.30;;;20.40;49.50;;;;;;4992240;28;20793;-68
2022/03/27 12:07:23;;;;;;;18.20;10.87;;;20.70;49.60;;;;;;4994346;28;20420;-68
2022/03/27 12:09:57;;;;;;;18.50;11.57;;;21.20;49.00;;;;;;4992753;28;20427;-68
2022/03/27 12:12:22;;;;;;;19.40;11.53;;;21.80;47.80;;;;;;4994377;28;21025;-68
2022/03/27 12:14:53;;;;;;;15.77;11.60;;;22.50;47.40;;;;;;4994953;28;20532;-68
2022/03/27 12:17:19;;;;;;;22.50;11.23;;;23.00;46.30;;;;;;4995880;28;20178;-68
2022/03/27 12:19:57;;;;;;;15.30;10.83;;;23.70;44.70;;;;;;4993880;28;20436;-68
2022/03/27 12:22:46;;;;;;;15.90;11.87;;;24.20;45.40;;;;;;4991141;28;20220;-68
2022/03/27 12:25:23;;;;;;;16.30;11.33;;;24.50;44.00;;;;;;4995565;28;20936;-68
2022/03/27 12:30:47;;;;;;;13.90;10.50;;;25.50;42.60;;;;;;4993136;28;20499;-68
2022/03/27 12:33:13;;;;;;;18.30;12.30;;;25.90;41.70;;;;;;4990493;28;20448;-68
2022/03/27 12:35:39;;;;;;;22.10;15.10;;;25.80;41.20;;;;;;4992348;28;20261;-68
2022/03/27 12:38:04;;;;;;;16.53;11.67;;;25.80;41.40;;;;;;4993463;28;20989;-68
2022/03/27 12:40:44;;;;;;;18.80;11.47;;;25.70;42.10;;;;;;4993740;28;20761;-68
2022/03/27 12:43:12;;;;;;;11.90;9.50;;;26.10;40.90;;;;;;4993826;28;20248;-68
2022/03/27 12:45:40;;;;;;;15.30;11.47;;;26.20;40.60;;;;;;4990755;28;20457;-68
2022/03/27 12:48:11;;;;;;;14.17;11.03;;;26.20;40.60;;;;;;4996967;28;20428;-69
2022/03/27 12:50:40;;;;;;;16.27;10.30;;;26.10;40.90;;;;;;4995140;28;20439;-69
2022/03/27 12:53:10;;;;;;;19.07;11.90;;;26.20;40.50;;;;;;4995343;28;20452;-69